createdAt,value
2018-01-06T00:00:09.161Z,13.10
2018-01-06T00:02:38.776Z,13.30
2018-01-06T00:05:11.072Z,13.30
2018-01-06T00:07:41.623Z,13.30
2018-01-06T00:10:15.210Z,13.30
2018-01-06T00:12:45.827Z,13.20
2018-01-06T00:15:14.163Z,13.20
2018-01-06T00:17:42.962Z,13.10
2018-01-06T00:20:14.515Z,13.10
2018-01-06T00:22:42.808Z,13.00
2018-01-06T00:25:18.799Z,13.00
2018-01-06T00:27:49.708Z,12.90
2018-01-06T00:30:20.635Z,12.90
2018-01-06T00:32:51.031Z,13.10
2018-01-06T00:35:19.055Z,13.20
2018-01-06T00:37:48.338Z,13.20
2018-01-06T00:40:16.562Z,13.20
2018-01-06T00:42:45.631Z,13.20
2018-01-06T00:45:14.027Z,13.20
2018-01-06T00:47:44.943Z,13.10
2018-01-06T00:50:13.828Z,13.00
2018-01-06T00:52:45.424Z,13.00
2018-01-06T00:55:15.710Z,12.90
2018-01-06T00:57:44.089Z,12.80
2018-01-06T01:00:12.596Z,12.80
2018-01-06T01:02:41.533Z,12.80
2018-01-06T01:05:09.983Z,12.90
2018-01-06T01:07:38.474Z,13.10
2018-01-06T01:10:08.078Z,13.10
2018-01-06T01:12:37.900Z,13.10
2018-01-06T01:15:08.032Z,13.00
2018-01-06T01:17:37.242Z,13.00
2018-01-06T01:20:06.163Z,12.90
2018-01-06T01:22:36.639Z,12.80
2018-01-06T01:25:05.733Z,12.70
2018-01-06T01:27:35.327Z,12.70
2018-01-06T01:30:04.586Z,12.60
2018-01-06T01:32:36.420Z,12.60
2018-01-06T01:35:05.788Z,12.60
2018-01-06T01:37:37.024Z,12.70
2018-01-06T01:40:06.416Z,12.80
2018-01-06T01:42:36.060Z,12.90
2018-01-06T01:45:06.029Z,12.90
2018-01-06T01:47:35.532Z,12.80
2018-01-06T01:50:04.027Z,12.80
2018-01-06T01:52:32.523Z,12.70
2018-01-06T01:55:01.803Z,12.60
2018-01-06T01:57:31.513Z,12.60
2018-01-06T02:00:00.273Z,12.50
2018-01-06T02:02:30.096Z,12.40
2018-01-06T02:05:00.390Z,12.40
2018-01-06T02:07:30.737Z,12.40
2018-01-06T02:09:59.992Z,12.50
2018-01-06T02:12:29.501Z,12.70
2018-01-06T02:14:58.664Z,12.70
2018-01-06T02:17:28.136Z,12.70
2018-01-06T02:19:59.370Z,12.70
2018-01-06T02:22:30.480Z,12.60
2018-01-06T02:25:00.210Z,12.50
2018-01-06T02:30:15.933Z,12.40
2018-01-06T02:32:45.270Z,12.30
2018-01-06T02:35:13.648Z,12.20
2018-01-06T02:37:42.411Z,12.10
2018-01-06T02:40:14.548Z,12.30
2018-01-06T02:42:43.296Z,12.30
2018-01-06T02:45:12.082Z,12.50
2018-01-06T02:47:41.060Z,12.50
2018-01-06T02:50:10.157Z,12.50
2018-01-06T02:52:40.003Z,12.50
2018-01-06T02:55:11.674Z,12.40
2018-01-06T02:57:41.095Z,12.30
2018-01-06T03:00:10.384Z,12.30
2018-01-06T03:02:39.725Z,12.20
2018-01-06T03:05:14.831Z,12.10
2018-01-06T03:07:52.063Z,12.00
2018-01-06T03:10:26.544Z,12.00
2018-01-06T03:13:03.094Z,12.00
2018-01-06T03:15:34.344Z,12.10
2018-01-06T03:18:04.677Z,12.30
2018-01-06T03:20:39.983Z,12.40
2018-01-06T03:23:13.062Z,12.30
2018-01-06T03:25:44.347Z,12.30
2018-01-06T03:28:16.457Z,12.30
2018-01-06T03:30:47.266Z,12.20
2018-01-06T03:33:17.952Z,12.10
2018-01-06T03:35:48.569Z,12.00
2018-01-06T03:38:17.066Z,12.00
2018-01-06T03:40:46.605Z,11.90
2018-01-06T03:43:15.512Z,11.80
2018-01-06T03:45:48.975Z,11.80
2018-01-06T03:48:26.476Z,11.90
2018-01-06T03:50:54.746Z,12.10
2018-01-06T03:53:34.610Z,12.30
2018-01-06T03:56:05.436Z,12.30
2018-01-06T03:58:35.323Z,12.30
2018-01-06T04:01:04.138Z,12.30
2018-01-06T04:03:32.959Z,12.20
2018-01-06T04:06:02.322Z,12.10
2018-01-06T04:08:31.550Z,12.00
2018-01-06T04:11:00.316Z,12.00
2018-01-06T04:13:29.110Z,11.90
2018-01-06T04:15:57.535Z,11.90
2018-01-06T04:18:25.877Z,11.80
2018-01-06T04:20:56.362Z,11.90
2018-01-06T04:23:25.778Z,12.10
2018-01-06T04:25:55.384Z,12.10
2018-01-06T04:28:24.127Z,12.30
2018-01-06T04:30:53.222Z,12.40
2018-01-06T04:33:22.376Z,12.40
2018-01-06T04:35:51.414Z,12.30
2018-01-06T04:38:20.519Z,12.30
2018-01-06T04:40:52.075Z,12.20
2018-01-06T04:43:25.022Z,12.10
2018-01-06T04:46:02.421Z,12.00
2018-01-06T04:48:33.605Z,11.90
2018-01-06T04:51:03.808Z,11.90
2018-01-06T04:53:33.238Z,11.80
2018-01-06T04:56:03.086Z,11.70
2018-01-06T04:58:32.674Z,11.80
2018-01-06T05:01:02.406Z,11.90
2018-01-06T05:03:32.972Z,12.10
2018-01-06T05:06:04.068Z,12.30
2018-01-06T05:08:33.196Z,12.30
2018-01-06T05:11:05.550Z,12.30
2018-01-06T05:16:08.282Z,12.20
2018-01-06T05:18:39.396Z,12.10
2018-01-06T05:21:09.181Z,12.00
2018-01-06T05:23:39.113Z,11.90
2018-01-06T05:26:11.719Z,11.80
2018-01-06T05:28:42.149Z,11.70
2018-01-06T05:31:15.356Z,11.70
2018-01-06T05:36:28.286Z,11.70
2018-01-06T05:41:41.375Z,12.00
2018-01-06T05:44:13.583Z,12.20
2018-01-06T05:46:47.498Z,12.20
2018-01-06T05:49:17.807Z,12.20
2018-01-06T05:51:49.635Z,12.10
2018-01-06T06:07:27.317Z,11.50
2018-01-06T06:12:48.810Z,11.50
2018-01-06T06:15:28.898Z,11.70
2018-01-06T06:18:01.494Z,11.90
2018-01-06T06:20:35.089Z,12.00
2018-01-06T06:23:07.846Z,12.00
2018-01-06T06:25:42.950Z,11.90
2018-01-06T06:28:18.660Z,11.70
2018-01-06T06:30:54.214Z,11.70
2018-01-06T06:33:27.767Z,11.60
2018-01-06T06:36:03.338Z,11.60
2018-01-06T06:38:41.391Z,11.50
2018-01-06T06:41:20.046Z,11.40
2018-01-06T06:43:57.895Z,11.30
2018-01-06T06:46:37.716Z,11.30
2018-01-06T06:49:13.780Z,11.50
2018-01-06T06:54:31.042Z,11.80
2018-01-06T06:57:04.608Z,11.90
2018-01-06T06:59:36.155Z,11.90
2018-01-06T07:02:11.380Z,11.80
2018-01-06T07:10:04.467Z,11.50
2018-01-06T07:12:37.469Z,11.30
2018-01-06T07:15:11.628Z,11.30
2018-01-06T07:17:48.557Z,11.30
2018-01-06T07:22:59.216Z,11.10
2018-01-06T07:25:30.130Z,11.20
2018-01-06T07:28:04.450Z,11.60
2018-01-06T07:30:42.579Z,11.60
2018-01-06T07:33:16.706Z,11.70
2018-01-06T07:35:59.918Z,11.80
2018-01-06T07:38:30.768Z,11.80
2018-01-06T07:43:45.271Z,11.60
2018-01-06T07:48:56.389Z,11.40
2018-01-06T07:57:07.699Z,11.00
2018-01-06T07:59:41.188Z,11.00
2018-01-06T08:07:35.875Z,11.40
2018-01-06T08:10:06.772Z,11.60
2018-01-06T08:12:39.200Z,11.70
2018-01-06T08:20:36.332Z,11.60
2018-01-06T08:23:18.742Z,11.50
2018-01-06T08:26:03.709Z,11.40
2018-01-06T08:28:38.526Z,11.30
2018-01-06T08:31:10.252Z,11.20
2018-01-06T08:33:41.935Z,11.10
2018-01-06T08:36:13.984Z,11.00
2018-01-06T08:38:45.284Z,11.00
2018-01-06T08:41:16.715Z,11.10
2018-01-06T08:43:45.848Z,11.30
2018-01-06T08:46:15.144Z,11.70
2018-01-06T08:48:43.310Z,11.70
2018-01-06T08:51:12.374Z,11.70
2018-01-06T08:53:41.036Z,11.70
2018-01-06T08:56:13.484Z,11.60
2018-01-06T08:58:44.250Z,11.50
2018-01-06T09:01:14.883Z,11.40
2018-01-06T09:03:45.311Z,11.40
2018-01-06T09:06:14.381Z,11.30
2018-01-06T09:08:45.800Z,11.30
2018-01-06T09:11:15.747Z,11.20
2018-01-06T09:13:46.754Z,11.20
2018-01-06T09:16:15.942Z,11.30
2018-01-06T09:18:45.818Z,11.40
2018-01-06T09:21:18.600Z,11.80
2018-01-06T09:23:48.018Z,11.80
2018-01-06T09:26:17.498Z,12.00
2018-01-06T09:28:46.663Z,12.00
2018-01-06T09:31:15.661Z,12.00
2018-01-06T09:33:45.317Z,11.80
2018-01-06T09:36:14.612Z,11.80
2018-01-06T09:38:43.740Z,11.80
2018-01-06T09:41:13.255Z,11.60
2018-01-06T09:43:46.385Z,11.60
2018-01-06T09:46:17.961Z,11.60
2018-01-06T09:48:50.174Z,11.60
2018-01-06T09:51:22.016Z,11.50
2018-01-06T09:53:54.592Z,11.50
2018-01-06T09:59:10.426Z,11.80
2018-01-06T10:01:39.656Z,12.10
2018-01-06T10:04:09.007Z,12.20
2018-01-06T10:06:38.823Z,12.40
2018-01-06T10:09:08.651Z,12.30
2018-01-06T10:11:38.656Z,12.20
2018-01-06T10:14:13.417Z,12.20
2018-01-06T10:16:46.771Z,12.20
2018-01-06T10:19:23.737Z,12.10
2018-01-06T10:21:53.583Z,12.10
2018-01-06T10:24:23.937Z,12.10
2018-01-06T10:26:54.063Z,12.00
2018-01-06T10:29:28.440Z,12.10
2018-01-06T10:31:58.485Z,12.10
2018-01-06T10:34:28.835Z,12.20
2018-01-06T10:37:00.207Z,12.50
2018-01-06T10:42:19.633Z,12.80
2018-01-06T10:44:53.564Z,12.80
2018-01-06T10:47:28.848Z,12.70
2018-01-06T10:50:00.840Z,12.70
2018-01-06T10:52:32.307Z,12.60
2018-01-06T10:55:04.769Z,12.60
2018-01-06T10:57:35.640Z,12.50
2018-01-06T11:00:07.023Z,12.50
2018-01-06T11:02:40.115Z,12.40
2018-01-06T11:05:15.472Z,12.40
2018-01-06T11:07:46.211Z,12.40
2018-01-06T11:10:20.865Z,12.40
2018-01-06T11:12:53.375Z,12.60
2018-01-06T11:15:26.558Z,12.80
2018-01-06T11:18:06.790Z,12.90
2018-01-06T11:20:46.840Z,12.90
2018-01-06T11:23:29.404Z,12.90
2018-01-06T11:25:59.097Z,12.90
2018-01-06T11:28:30.885Z,12.80
2018-01-06T11:31:03.306Z,12.80
2018-01-06T11:33:33.528Z,12.70
2018-01-06T11:36:04.530Z,12.70
2018-01-06T11:38:36.383Z,12.70
2018-01-06T11:41:05.443Z,12.70
2018-01-06T11:43:35.813Z,12.70
2018-01-06T11:46:06.282Z,12.80
2018-01-06T11:48:34.808Z,13.00
2018-01-06T11:51:06.117Z,13.10
2018-01-06T11:53:34.806Z,13.20
2018-01-06T11:56:06.253Z,13.10
2018-01-06T11:58:36.903Z,13.10
2018-01-06T12:01:10.310Z,13.10
2018-01-06T12:03:43.453Z,13.00
2018-01-06T12:06:24.950Z,13.00
2018-01-06T12:09:06.061Z,13.00
2018-01-06T12:11:38.377Z,12.90
2018-01-06T12:14:12.968Z,12.90
2018-01-06T12:16:51.676Z,12.90
2018-01-06T12:19:22.590Z,12.90
2018-01-06T12:21:54.206Z,13.20
2018-01-06T12:24:34.506Z,13.20
2018-01-06T12:27:07.267Z,13.30
2018-01-06T12:29:38.199Z,13.30
2018-01-06T12:48:37.414Z,13.30
2018-01-06T12:53:53.468Z,13.60
2018-01-06T12:56:26.387Z,13.70
2018-01-06T12:58:56.215Z,13.70
2018-01-06T13:09:58.376Z,13.60
2018-01-06T13:17:48.711Z,13.60
2018-01-06T13:20:21.631Z,13.60
2018-01-06T13:22:53.528Z,13.80
2018-01-06T13:25:26.335Z,14.00
2018-01-06T13:27:59.137Z,14.00
2018-01-06T13:30:28.646Z,14.00
2018-01-06T13:32:59.667Z,13.90
2018-01-06T13:35:31.659Z,13.90
2018-01-06T13:38:03.609Z,13.90
